Terminal Aerodrome Forecast
Issued by NWS

Home | Current Version | Previous Version | Graphics & Text | Print | Product List | Glossary On
Versions: 1 2 3 4 5 6 7 8 9 10 11 12 13 14 15 16 17 18 19
000
FTUS42 KMHX 161720
TAFISO
TAF
KISO 161720Z 1618/1718 08008KT P6SM -DZ SCT035 OVC050
     FM162200 12004KT P6SM BKN040
     FM170800 06002KT P6SM BKN025
     FM171300 07005KT P6SM BKN050
      AMD LTD TO CLD VIS AND WIND=

USA.gov is the U.S. government's official web portal to all federal, state and local government web resources and services.